Whitehaven, United Kingdom
Current Conditions -  °F | °C
As of 11:50 PM on Sunday 23 Nov 2014 (Local Time) from EGNS Reporting Station
Few Clouds Few Clouds  
Wind Chill:   Ceiling: Unl
Heat Index:   Visibility: 6mi
Dew Point:   Wind: 7mph
Humidity: 76%   Direction: 290°WNW
Pressure: 30.15"   Gusts: NA
Location:  54.55°N, 3.59°W
Report Text: EGNS 232350Z 29006KT 260V320 9999 FEW024 07/03 Q1021
Loading
Personal Weather Stations






























Interactive Weather Map New forecast layout! Learn more

10-Day Weather Forecast

Advertisements
Track Severe Weather on mobile